createdAt,value
2018-07-16T00:00:07.029Z,19.39
2018-07-16T00:01:07.035Z,19.37
2018-07-16T00:02:07.022Z,19.30
2018-07-16T00:03:07.038Z,19.36
2018-07-16T00:04:07.020Z,19.36
2018-07-16T00:05:07.037Z,19.36
2018-07-16T00:06:07.014Z,19.34
2018-07-16T00:07:07.019Z,19.29
2018-07-16T00:08:07.009Z,19.26
2018-07-16T00:09:07.021Z,19.22
2018-07-16T00:10:07.007Z,19.22
2018-07-16T00:11:07.005Z,19.24
2018-07-16T00:12:07.000Z,19.26
2018-07-16T00:13:07.004Z,19.21
2018-07-16T00:14:07.002Z,19.19
2018-07-16T00:15:07.000Z,19.21
2018-07-16T00:16:06.995Z,19.16
2018-07-16T00:17:06.998Z,19.12
2018-07-16T00:18:06.994Z,19.12
2018-07-16T00:19:06.991Z,19.12
2018-07-16T00:20:06.989Z,19.14
2018-07-16T00:21:06.996Z,19.12
2018-07-16T00:22:07.015Z,19.08
2018-07-16T00:23:07.010Z,19.11
2018-07-16T00:24:06.988Z,19.00
2018-07-16T00:25:06.976Z,19.08
2018-07-16T00:26:06.974Z,19.02
2018-07-16T00:27:06.972Z,18.95
2018-07-16T00:28:06.972Z,18.95
2018-07-16T00:29:06.969Z,18.95
2018-07-16T00:30:06.972Z,18.98
2018-07-16T00:31:06.986Z,18.98
2018-07-16T00:32:06.961Z,18.90
2018-07-16T00:33:06.972Z,18.90
2018-07-16T00:34:06.966Z,18.92
2018-07-16T00:35:06.953Z,18.96
2018-07-16T00:36:06.968Z,18.90
2018-07-16T00:37:06.952Z,18.93
2018-07-16T00:38:06.950Z,18.89
2018-07-16T00:39:06.945Z,18.93
2018-07-16T00:40:06.943Z,18.88
2018-07-16T00:41:06.941Z,18.89
2018-07-16T00:42:06.943Z,18.88
2018-07-16T00:43:06.942Z,18.90
2018-07-16T00:44:06.938Z,18.71
2018-07-16T00:45:06.935Z,18.78
2018-07-16T00:46:06.935Z,18.73
2018-07-16T00:47:06.932Z,18.86
2018-07-16T00:48:06.925Z,18.86
2018-07-16T00:49:06.926Z,18.81
2018-07-16T00:50:06.928Z,18.78
2018-07-16T00:51:06.919Z,18.74
2018-07-16T00:52:06.915Z,18.77
2018-07-16T00:53:06.917Z,18.73
2018-07-16T00:54:06.918Z,18.70
2018-07-16T00:55:06.912Z,18.70
2018-07-16T00:56:06.923Z,18.68
2018-07-16T00:57:06.906Z,18.73
2018-07-16T00:58:06.908Z,18.70
2018-07-16T00:59:06.911Z,18.65
2018-07-16T01:00:06.919Z,18.73
2018-07-16T01:01:06.922Z,18.71
2018-07-16T01:02:06.894Z,18.70
2018-07-16T01:03:06.893Z,18.68
2018-07-16T01:04:06.897Z,18.74
2018-07-16T01:05:06.892Z,18.68
2018-07-16T01:06:06.886Z,18.71
2018-07-16T01:07:06.882Z,18.60
2018-07-16T01:08:06.883Z,18.56
2018-07-16T01:09:06.880Z,18.62
2018-07-16T01:10:06.877Z,18.62
2018-07-16T01:11:06.876Z,18.52
2018-07-16T01:12:06.872Z,18.59
2018-07-16T01:13:06.883Z,18.53
2018-07-16T01:14:06.869Z,18.60
2018-07-16T01:15:06.866Z,18.59
2018-07-16T01:16:07.723Z,18.52
2018-07-16T01:17:06.861Z,18.60
2018-07-16T01:18:06.858Z,18.56
2018-07-16T01:19:06.881Z,18.50
2018-07-16T01:20:06.873Z,18.55
2018-07-16T01:21:06.856Z,18.47
2018-07-16T01:22:06.851Z,18.47
2018-07-16T01:23:06.850Z,18.56
2018-07-16T01:24:06.851Z,18.47
2018-07-16T01:25:06.846Z,18.35
2018-07-16T01:26:06.845Z,18.43
2018-07-16T01:27:06.840Z,18.41
2018-07-16T01:28:06.839Z,18.37
2018-07-16T01:29:06.841Z,18.47
2018-07-16T01:30:06.828Z,18.34
2018-07-16T01:31:06.832Z,18.35
2018-07-16T01:32:06.862Z,18.25
2018-07-16T01:33:06.821Z,18.23
2018-07-16T01:34:06.852Z,18.23
2018-07-16T01:35:06.834Z,18.28
2018-07-16T01:36:06.819Z,18.25
2018-07-16T01:37:06.816Z,18.23
2018-07-16T01:38:06.814Z,18.31
2018-07-16T01:39:06.816Z,18.34
2018-07-16T01:40:06.816Z,18.22
2018-07-16T01:41:06.820Z,18.26
2018-07-16T01:42:06.804Z,18.25
2018-07-16T01:43:06.800Z,18.22
2018-07-16T01:44:06.800Z,18.16
2018-07-16T01:45:06.803Z,18.08
2018-07-16T01:46:06.797Z,18.15
2018-07-16T01:47:06.791Z,18.07
2018-07-16T01:48:06.788Z,18.11
2018-07-16T01:49:06.789Z,18.03
2018-07-16T01:50:06.786Z,18.04
2018-07-16T01:51:06.783Z,18.04
2018-07-16T01:52:07.744Z,18.03
2018-07-16T01:53:06.775Z,18.04
2018-07-16T01:54:06.780Z,18.00
2018-07-16T01:55:06.777Z,17.97
2018-07-16T01:56:06.771Z,17.92
2018-07-16T01:57:06.774Z,18.00
2018-07-16T01:58:06.771Z,18.00
2018-07-16T01:59:06.762Z,18.01
2018-07-16T02:00:06.757Z,17.98
2018-07-16T02:01:06.755Z,18.01
2018-07-16T02:02:06.755Z,17.98
2018-07-16T02:03:06.755Z,17.92
2018-07-16T02:04:06.749Z,17.92
2018-07-16T02:05:06.746Z,17.94
2018-07-16T02:06:06.746Z,17.92
2018-07-16T02:07:06.739Z,17.90
2018-07-16T02:08:06.745Z,17.97
2018-07-16T02:09:06.742Z,17.90
2018-07-16T02:10:06.744Z,17.92
2018-07-16T02:11:06.733Z,17.97
2018-07-16T02:12:06.735Z,17.92
2018-07-16T02:13:06.733Z,17.94
2018-07-16T02:14:06.725Z,17.94
2018-07-16T02:15:06.721Z,17.92
2018-07-16T02:16:06.725Z,17.86
2018-07-16T02:17:06.721Z,17.82
2018-07-16T02:18:06.715Z,17.86
2018-07-16T02:19:06.712Z,17.86
2018-07-16T02:20:06.709Z,17.92
2018-07-16T02:21:06.710Z,17.90
2018-07-16T02:22:06.707Z,17.80
2018-07-16T02:23:06.722Z,17.87
2018-07-16T02:24:06.729Z,17.89
2018-07-16T02:25:06.700Z,17.80
2018-07-16T02:26:06.719Z,17.79
2018-07-16T02:27:06.694Z,17.82
2018-07-16T02:28:06.690Z,17.82
2018-07-16T02:29:06.689Z,17.67
2018-07-16T02:30:06.683Z,17.76
2018-07-16T02:31:06.689Z,17.71
2018-07-16T02:32:06.705Z,17.79
2018-07-16T02:33:06.705Z,17.67
2018-07-16T02:34:06.679Z,17.74
2018-07-16T02:35:06.675Z,17.74
2018-07-16T02:36:06.669Z,17.63
2018-07-16T02:37:06.664Z,17.63
2018-07-16T02:38:06.685Z,17.65
2018-07-16T02:39:06.658Z,17.52
2018-07-16T02:40:06.661Z,17.51
2018-07-16T02:41:06.655Z,17.59
2018-07-16T02:42:06.652Z,17.59
2018-07-16T02:43:06.647Z,17.52
2018-07-16T02:44:06.648Z,17.51
2018-07-16T02:45:06.643Z,17.51
2018-07-16T02:46:06.718Z,17.56
2018-07-16T02:47:06.636Z,17.54
2018-07-16T02:48:06.637Z,17.52
2018-07-16T02:49:06.630Z,17.49
2018-07-16T02:50:06.627Z,17.46
2018-07-16T02:51:06.629Z,17.44
2018-07-16T02:52:06.623Z,17.48
2018-07-16T02:53:06.627Z,17.45
2018-07-16T02:54:06.619Z,17.45
2018-07-16T02:55:06.623Z,17.46
2018-07-16T02:56:06.616Z,17.49
2018-07-16T02:57:06.608Z,17.45
2018-07-16T02:58:06.610Z,17.44
2018-07-16T02:59:06.606Z,17.41
2018-07-16T03:00:06.611Z,17.42
2018-07-16T03:01:06.604Z,17.48
2018-07-16T03:02:06.596Z,17.39
2018-07-16T03:03:06.590Z,17.33
2018-07-16T03:04:06.600Z,17.36
2018-07-16T03:05:06.601Z,17.29
2018-07-16T03:06:06.591Z,17.27
2018-07-16T03:07:06.583Z,17.27
2018-07-16T03:08:06.581Z,17.29
2018-07-16T03:09:06.576Z,17.29
2018-07-16T03:10:06.572Z,17.27
2018-07-16T03:11:06.570Z,17.26
2018-07-16T03:12:06.569Z,17.33
2018-07-16T03:13:06.566Z,17.24
2018-07-16T03:14:06.564Z,17.27
2018-07-16T03:15:06.571Z,17.16
2018-07-16T03:16:06.562Z,17.19
2018-07-16T03:17:06.551Z,17.09
2018-07-16T03:18:06.644Z,17.14
2018-07-16T03:19:06.547Z,17.15
2018-07-16T03:20:06.552Z,17.14
2018-07-16T03:21:06.544Z,17.16
2018-07-16T03:22:06.540Z,17.11
2018-07-16T03:23:06.543Z,17.14
2018-07-16T03:24:06.534Z,17.12
2018-07-16T03:25:06.535Z,17.22
2018-07-16T03:26:06.526Z,17.14
2018-07-16T03:27:06.522Z,17.11
2018-07-16T03:28:06.521Z,17.08
2018-07-16T03:29:06.523Z,17.09
2018-07-16T03:30:06.520Z,17.05
2018-07-16T03:31:06.515Z,17.11
2018-07-16T03:32:06.514Z,17.20
2018-07-16T03:33:06.506Z,17.08
2018-07-16T03:34:06.504Z,17.16
2018-07-16T03:35:06.535Z,17.06
2018-07-16T03:36:06.508Z,17.08
2018-07-16T03:37:06.499Z,17.09
2018-07-16T03:38:06.502Z,17.12
2018-07-16T03:39:06.517Z,17.08
2018-07-16T03:40:06.496Z,17.14
2018-07-16T03:41:06.484Z,17.09
2018-07-16T03:42:06.498Z,17.09
2018-07-16T03:43:06.482Z,17.11
2018-07-16T03:44:06.475Z,17.06
2018-07-16T03:45:06.473Z,17.06
2018-07-16T03:46:06.471Z,17.11
2018-07-16T03:47:06.468Z,17.05
2018-07-16T03:48:06.578Z,17.14
2018-07-16T03:49:06.460Z,17.09
2018-07-16T03:50:06.457Z,17.11
2018-07-16T03:51:06.456Z,17.11
2018-07-16T03:52:06.452Z,17.11
2018-07-16T03:53:06.452Z,17.08
2018-07-16T03:54:06.442Z,17.08
2018-07-16T03:55:06.442Z,17.01
2018-07-16T03:56:06.437Z,17.11
2018-07-16T03:57:06.439Z,17.08
2018-07-16T03:58:06.435Z,17.11
2018-07-16T03:59:06.433Z,17.05
2018-07-16T04:00:06.438Z,17.12
2018-07-16T04:01:06.424Z,17.04
2018-07-16T04:02:06.422Z,17.01
2018-07-16T04:03:06.416Z,16.99
2018-07-16T04:04:06.433Z,16.99
2018-07-16T04:05:06.416Z,16.96
2018-07-16T04:06:06.408Z,16.97
2018-07-16T04:07:06.403Z,17.01
2018-07-16T04:08:06.403Z,17.05
2018-07-16T04:09:06.401Z,17.06
2018-07-16T04:10:06.396Z,17.06
2018-07-16T04:11:06.415Z,16.99
2018-07-16T04:12:06.393Z,17.06
2018-07-16T04:13:06.402Z,17.11
2018-07-16T04:14:06.385Z,17.06
2018-07-16T04:15:06.382Z,17.09
2018-07-16T04:16:06.386Z,17.02
2018-07-16T04:17:06.377Z,17.09
2018-07-16T04:18:06.377Z,17.06
2018-07-16T04:19:06.374Z,17.09
2018-07-16T04:20:06.373Z,17.09
2018-07-16T04:21:06.366Z,17.09
2018-07-16T04:22:06.361Z,17.11
2018-07-16T04:23:08.322Z,17.11
2018-07-16T04:24:06.355Z,17.09
2018-07-16T04:25:06.355Z,17.09
2018-07-16T04:26:06.354Z,17.12
2018-07-16T04:27:06.351Z,17.14
2018-07-16T04:28:06.346Z,17.16
2018-07-16T04:29:06.350Z,17.22
2018-07-16T04:30:06.339Z,17.19
2018-07-16T04:31:06.341Z,17.29
2018-07-16T04:32:06.333Z,17.30
2018-07-16T04:33:06.332Z,17.31
2018-07-16T04:34:06.370Z,17.34
2018-07-16T04:35:06.341Z,17.26
2018-07-16T04:36:06.328Z,17.31
2018-07-16T04:37:06.348Z,17.31
2018-07-16T04:38:06.315Z,17.30
2018-07-16T04:39:06.315Z,17.45
2018-07-16T04:40:06.309Z,17.42
2018-07-16T04:41:06.312Z,17.44
2018-07-16T04:42:06.305Z,17.46
2018-07-16T04:43:06.309Z,17.54
2018-07-16T04:44:06.306Z,17.56
2018-07-16T04:45:06.297Z,17.60
2018-07-16T04:46:06.303Z,17.70
2018-07-16T04:47:06.291Z,17.68
2018-07-16T04:48:06.292Z,17.80
2018-07-16T04:49:06.292Z,17.78
2018-07-16T04:50:06.278Z,17.83
2018-07-16T04:51:06.274Z,17.94
2018-07-16T04:52:06.288Z,18.08
2018-07-16T04:53:06.273Z,18.13
2018-07-16T04:54:06.295Z,18.23
2018-07-16T04:55:06.275Z,18.26
2018-07-16T04:56:06.274Z,18.31
2018-07-16T04:57:06.269Z,18.45
2018-07-16T04:58:06.255Z,18.53
2018-07-16T04:59:06.254Z,18.55
2018-07-16T05:00:06.251Z,18.62
2018-07-16T05:01:06.256Z,18.63
2018-07-16T05:02:06.273Z,18.68
2018-07-16T05:03:06.280Z,18.81
2018-07-16T05:04:06.257Z,18.86
2018-07-16T05:05:06.254Z,18.80
2018-07-16T05:06:06.232Z,18.93
2018-07-16T05:07:06.232Z,18.90
2018-07-16T05:08:06.228Z,18.98
2018-07-16T05:09:06.229Z,19.04
2018-07-16T05:10:06.226Z,19.09
2018-07-16T05:11:06.222Z,19.12
2018-07-16T05:12:06.218Z,19.09
2018-07-16T05:13:06.214Z,19.16
2018-07-16T05:14:06.216Z,19.21
2018-07-16T05:15:06.214Z,19.27
2018-07-16T05:16:06.209Z,19.31
2018-07-16T05:17:06.208Z,19.45
2018-07-16T05:18:06.271Z,19.44
2018-07-16T05:19:06.203Z,19.47
2018-07-16T05:20:06.198Z,19.48
2018-07-16T05:21:06.194Z,19.49
2018-07-16T05:22:06.198Z,19.48
2018-07-16T05:23:06.193Z,19.52
2018-07-16T05:24:06.271Z,19.66
2018-07-16T05:25:06.194Z,19.67
2018-07-16T05:26:06.194Z,19.74
2018-07-16T05:27:06.184Z,19.79
2018-07-16T05:28:06.204Z,19.70
2018-07-16T05:29:06.185Z,19.85
2018-07-16T05:30:06.200Z,19.92
2018-07-16T05:31:06.176Z,19.99
2018-07-16T05:32:06.224Z,19.95
2018-07-16T05:33:06.182Z,20.03
2018-07-16T05:34:06.171Z,20.07
2018-07-16T05:35:06.169Z,20.11
2018-07-16T05:36:06.173Z,20.16
2018-07-16T05:37:06.170Z,20.24
2018-07-16T05:38:06.197Z,20.31
2018-07-16T05:39:06.168Z,20.36
2018-07-16T05:40:06.866Z,20.40
2018-07-16T05:41:06.165Z,20.43
2018-07-16T05:42:06.175Z,20.56
2018-07-16T05:43:06.169Z,20.52
2018-07-16T05:44:06.181Z,20.67
2018-07-16T05:45:06.163Z,20.63
2018-07-16T05:46:06.163Z,20.65
2018-07-16T05:47:06.161Z,20.67
2018-07-16T05:48:06.160Z,20.70
2018-07-16T05:49:06.164Z,20.69
2018-07-16T05:50:06.161Z,20.78
2018-07-16T05:51:06.170Z,20.87
2018-07-16T05:52:06.168Z,20.99
2018-07-16T05:53:06.166Z,21.05
2018-07-16T05:54:06.164Z,21.12
2018-07-16T05:55:06.171Z,21.20
2018-07-16T05:56:06.178Z,21.24
2018-07-16T05:57:06.169Z,21.32
2018-07-16T05:58:06.209Z,21.48
2018-07-16T05:59:06.173Z,21.67
2018-07-16T06:00:06.175Z,21.70
2018-07-16T06:01:06.176Z,21.82
2018-07-16T06:02:06.173Z,21.91
2018-07-16T06:03:06.199Z,21.92
2018-07-16T06:04:06.179Z,21.95
2018-07-16T06:05:06.181Z,22.00
2018-07-16T06:06:06.184Z,22.07
2018-07-16T06:07:06.186Z,22.13
2018-07-16T06:08:06.182Z,22.13
2018-07-16T06:09:06.187Z,22.18
2018-07-16T06:10:06.188Z,22.18
2018-07-16T06:11:06.192Z,22.25
2018-07-16T06:12:06.204Z,22.30
2018-07-16T06:13:06.195Z,22.44
2018-07-16T06:14:06.206Z,22.47
2018-07-16T06:15:06.208Z,22.59
2018-07-16T06:16:06.216Z,22.75
2018-07-16T06:17:06.208Z,22.96
2018-07-16T06:18:06.208Z,23.10
2018-07-16T06:19:06.242Z,23.20
2018-07-16T06:20:06.216Z,23.17
2018-07-16T06:21:06.223Z,23.18
2018-07-16T06:22:06.218Z,23.25
2018-07-16T06:23:06.224Z,23.15
2018-07-16T06:24:06.356Z,23.15
2018-07-16T06:25:06.237Z,23.03
2018-07-16T06:26:06.233Z,22.91
2018-07-16T06:27:06.243Z,22.93
2018-07-16T06:28:06.239Z,23.17
2018-07-16T06:29:06.244Z,23.39
2018-07-16T06:30:06.253Z,23.54
2018-07-16T06:31:09.023Z,23.62
2018-07-16T06:32:06.255Z,23.62
2018-07-16T06:33:06.277Z,23.65
2018-07-16T06:34:06.262Z,23.55
2018-07-16T06:35:06.263Z,23.62
2018-07-16T06:36:06.266Z,23.68
2018-07-16T06:37:06.268Z,23.65
2018-07-16T06:38:06.274Z,23.76
2018-07-16T06:39:06.280Z,24.11
2018-07-16T06:40:06.314Z,24.18
2018-07-16T06:41:06.640Z,24.32
2018-07-16T06:42:06.298Z,24.20
2018-07-16T06:43:06.302Z,23.98
2018-07-16T06:44:06.301Z,23.87
2018-07-16T06:45:06.306Z,23.83
2018-07-16T06:46:06.310Z,23.73
2018-07-16T06:47:06.313Z,23.91
2018-07-16T06:48:06.322Z,23.95
2018-07-16T06:49:06.322Z,23.86
2018-07-16T06:50:06.324Z,23.74
2018-07-16T06:51:06.331Z,23.61
2018-07-16T06:52:06.333Z,23.76
2018-07-16T06:53:06.342Z,23.93
2018-07-16T06:54:06.344Z,24.29
2018-07-16T06:55:06.373Z,24.60
2018-07-16T06:56:06.358Z,24.77
2018-07-16T06:57:06.363Z,25.03
2018-07-16T06:58:06.368Z,25.03
2018-07-16T06:59:06.927Z,24.95
2018-07-16T07:00:06.379Z,24.95
2018-07-16T07:01:06.380Z,24.85
2018-07-16T07:02:06.385Z,24.91
2018-07-16T07:03:06.387Z,24.98
2018-07-16T07:04:06.422Z,25.03
2018-07-16T07:05:06.426Z,25.22
2018-07-16T07:06:06.406Z,25.40
2018-07-16T07:07:06.410Z,25.54
2018-07-16T07:08:06.435Z,25.59
2018-07-16T07:09:06.424Z,25.53
2018-07-16T07:10:06.477Z,25.65
2018-07-16T07:11:06.454Z,25.73
2018-07-16T07:12:06.443Z,25.73
2018-07-16T07:13:07.441Z,26.06
2018-07-16T07:14:06.448Z,26.19
2018-07-16T07:15:06.472Z,26.16
2018-07-16T07:16:06.483Z,26.06
2018-07-16T07:17:06.468Z,26.10
2018-07-16T07:18:06.490Z,26.40
2018-07-16T07:19:06.481Z,26.41
2018-07-16T07:20:06.484Z,26.28
2018-07-16T07:21:06.491Z,26.38
2018-07-16T07:22:06.499Z,26.55
2018-07-16T07:23:06.512Z,26.58
2018-07-16T07:24:06.513Z,26.34
2018-07-16T07:25:06.518Z,26.28
2018-07-16T07:26:07.448Z,26.29
2018-07-16T07:27:06.537Z,25.91
2018-07-16T07:28:06.533Z,25.53
2018-07-16T07:29:06.545Z,25.50
2018-07-16T07:30:06.552Z,25.46
2018-07-16T07:31:06.570Z,25.58
2018-07-16T07:32:06.560Z,25.70
2018-07-16T07:33:06.568Z,25.72
2018-07-16T07:34:06.585Z,25.90
2018-07-16T07:35:06.636Z,26.09
2018-07-16T07:36:06.679Z,26.34
2018-07-16T07:37:06.593Z,26.66
2018-07-16T07:38:06.611Z,27.02
2018-07-16T07:39:06.606Z,27.32
2018-07-16T07:40:06.609Z,27.48
2018-07-16T07:41:06.617Z,27.39
2018-07-16T07:42:06.621Z,27.55
2018-07-16T07:43:06.633Z,27.48
2018-07-16T07:44:06.635Z,27.54
2018-07-16T07:45:06.655Z,27.37
2018-07-16T07:46:06.648Z,27.55
2018-07-16T07:47:06.663Z,27.73
2018-07-16T07:48:06.664Z,27.98
2018-07-16T07:49:06.680Z,27.60
2018-07-16T07:50:06.683Z,27.44
2018-07-16T07:51:06.710Z,27.47
2018-07-16T07:52:06.701Z,27.58
2018-07-16T07:53:06.711Z,27.25
2018-07-16T07:54:06.724Z,26.95
2018-07-16T07:55:07.228Z,26.59
2018-07-16T07:56:06.746Z,26.70
2018-07-16T07:57:06.733Z,26.96
2018-07-16T07:58:06.738Z,27.02
2018-07-16T07:59:06.744Z,27.22
2018-07-16T08:00:06.754Z,27.42
2018-07-16T08:01:06.764Z,27.48
2018-07-16T08:02:06.769Z,27.73
2018-07-16T08:03:06.772Z,27.87
2018-07-16T08:04:06.785Z,27.87
2018-07-16T08:05:06.792Z,27.92
2018-07-16T08:06:06.801Z,27.71
2018-07-16T08:07:06.808Z,27.74
2018-07-16T08:08:06.809Z,27.64
2018-07-16T08:09:06.817Z,27.67
2018-07-16T08:10:06.824Z,27.59
2018-07-16T08:11:06.831Z,27.55
2018-07-16T08:12:06.838Z,27.60
2018-07-16T08:13:06.848Z,27.51
2018-07-16T08:14:06.854Z,27.60
2018-07-16T08:15:06.861Z,27.60
2018-07-16T08:16:06.869Z,27.63
2018-07-16T08:17:06.876Z,27.78
2018-07-16T08:18:06.892Z,27.96
2018-07-16T08:19:06.895Z,28.02
2018-07-16T08:20:06.935Z,28.19
2018-07-16T08:21:07.072Z,28.49
2018-07-16T08:22:06.916Z,28.81
2018-07-16T08:23:06.927Z,28.94
2018-07-16T08:24:06.931Z,29.12
2018-07-16T08:25:06.944Z,29.31
2018-07-16T08:26:06.951Z,29.35
2018-07-16T08:27:06.958Z,29.45
2018-07-16T08:28:06.990Z,29.38
2018-07-16T08:29:06.974Z,29.38
2018-07-16T08:30:06.980Z,29.66
2018-07-16T08:31:06.989Z,29.41
2018-07-16T08:32:07.059Z,29.26
2018-07-16T08:33:07.032Z,28.67
2018-07-16T08:34:07.017Z,28.64
2018-07-16T08:35:07.030Z,28.66
2018-07-16T08:36:07.032Z,28.69
2018-07-16T08:37:08.025Z,28.88
2018-07-16T08:38:07.064Z,29.10
2018-07-16T08:39:07.141Z,29.23
2018-07-16T08:40:07.078Z,29.20
2018-07-16T08:41:07.078Z,28.96
2018-07-16T08:42:07.091Z,28.97
2018-07-16T08:43:07.097Z,28.88
2018-07-16T08:44:07.110Z,28.79
2018-07-16T08:45:07.114Z,29.02
2018-07-16T08:46:07.127Z,29.31
2018-07-16T08:47:07.145Z,29.27
2018-07-16T08:48:07.138Z,29.31
2018-07-16T08:49:07.152Z,29.39
2018-07-16T08:50:07.161Z,29.60
2018-07-16T08:51:07.169Z,29.69
2018-07-16T08:52:07.177Z,29.66
2018-07-16T08:53:07.186Z,29.59
2018-07-16T08:54:07.193Z,29.66
2018-07-16T08:55:07.206Z,29.82
2018-07-16T08:56:07.218Z,29.88
2018-07-16T08:57:07.224Z,29.90
2018-07-16T08:58:07.257Z,30.18
2018-07-16T08:59:07.268Z,30.24
2018-07-16T09:00:07.253Z,30.21
2018-07-16T09:01:07.263Z,30.09
2018-07-16T09:02:07.270Z,30.13
2018-07-16T09:03:07.284Z,29.95
2018-07-16T09:04:07.358Z,30.05
2018-07-16T09:05:07.323Z,30.21
2018-07-16T09:06:07.309Z,30.39
2018-07-16T09:07:07.383Z,30.70
2018-07-16T09:08:07.332Z,30.96
2018-07-16T09:09:07.339Z,31.09
2018-07-16T09:10:07.354Z,31.14
2018-07-16T09:11:07.383Z,31.37
2018-07-16T09:12:07.381Z,31.84
2018-07-16T09:13:07.388Z,32.31
2018-07-16T09:14:07.390Z,32.49
2018-07-16T09:15:07.409Z,32.70
2018-07-16T09:16:07.421Z,33.14
2018-07-16T09:17:07.447Z,32.74
2018-07-16T09:18:07.467Z,32.11
2018-07-16T09:19:07.505Z,31.73
2018-07-16T09:20:07.462Z,31.37
2018-07-16T09:21:07.473Z,31.31
2018-07-16T09:22:07.482Z,31.29
2018-07-16T09:23:07.510Z,31.36
2018-07-16T09:24:07.498Z,31.96
2018-07-16T09:25:07.513Z,31.81
2018-07-16T09:26:07.524Z,31.39
2018-07-16T09:27:07.533Z,30.96
2018-07-16T09:28:07.573Z,30.68
2018-07-16T09:29:07.559Z,30.68
2018-07-16T09:30:07.572Z,30.61
2018-07-16T09:31:07.579Z,30.59
2018-07-16T09:32:07.593Z,30.44
2018-07-16T09:33:07.601Z,30.40
2018-07-16T09:34:07.616Z,30.27
2018-07-16T09:35:07.626Z,30.18
2018-07-16T09:36:07.637Z,30.13
2018-07-16T09:37:07.647Z,30.15
2018-07-16T09:38:07.657Z,30.32
2018-07-16T09:39:07.755Z,30.65
2018-07-16T09:40:07.681Z,30.48
2018-07-16T09:41:07.703Z,30.25
2018-07-16T09:42:07.712Z,30.10
2018-07-16T09:43:07.715Z,30.16
2018-07-16T09:44:07.722Z,30.27
2018-07-16T09:45:07.729Z,29.90
2018-07-16T09:46:07.742Z,29.98
2018-07-16T09:47:07.749Z,30.12
2018-07-16T09:48:07.758Z,30.25
2018-07-16T09:49:07.776Z,30.55
2018-07-16T09:50:07.787Z,30.90
2018-07-16T09:51:07.796Z,31.70
2018-07-16T09:52:07.803Z,32.07
2018-07-16T09:53:07.822Z,32.18
2018-07-16T09:54:07.822Z,32.38
2018-07-16T09:55:07.831Z,32.09
2018-07-16T09:56:07.867Z,32.16
2018-07-16T09:57:07.857Z,32.26
2018-07-16T09:58:07.863Z,32.29
2018-07-16T09:59:07.892Z,32.40
2018-07-16T10:00:07.889Z,32.93
2018-07-16T10:01:07.900Z,33.49
2018-07-16T10:02:07.908Z,33.80
2018-07-16T10:03:07.919Z,33.50
2018-07-16T10:04:09.554Z,32.59
2018-07-16T10:05:07.944Z,31.87
2018-07-16T10:06:07.972Z,31.36
2018-07-16T10:07:07.965Z,31.17
2018-07-16T10:08:08.011Z,31.06
2018-07-16T10:09:07.988Z,30.91
2018-07-16T10:10:07.999Z,30.51
2018-07-16T10:11:08.015Z,30.46
2018-07-16T10:12:08.060Z,30.75
2018-07-16T10:13:08.036Z,31.52
2018-07-16T10:14:08.050Z,31.85
2018-07-16T10:15:08.062Z,31.99
2018-07-16T10:16:08.070Z,32.27
2018-07-16T10:17:08.085Z,31.93
2018-07-16T10:18:08.097Z,31.62
2018-07-16T10:19:08.109Z,31.37
2018-07-16T10:20:08.187Z,31.20
2018-07-16T10:21:08.155Z,31.10
2018-07-16T10:22:08.143Z,31.29
2018-07-16T10:23:08.149Z,31.51
2018-07-16T10:24:08.163Z,31.74
2018-07-16T10:25:08.172Z,31.61
2018-07-16T10:26:08.184Z,31.42
2018-07-16T10:27:08.223Z,30.88
2018-07-16T10:28:08.209Z,30.70
2018-07-16T10:29:08.226Z,30.84
2018-07-16T10:30:08.233Z,31.28
2018-07-16T10:31:08.251Z,31.99
2018-07-16T10:32:08.255Z,32.52
2018-07-16T10:33:08.282Z,32.80
2018-07-16T10:34:08.278Z,32.89
2018-07-16T10:35:08.296Z,32.70
2018-07-16T10:36:08.299Z,32.63
2018-07-16T10:37:08.335Z,32.58
2018-07-16T10:38:08.322Z,32.52
2018-07-16T10:39:08.338Z,32.12
2018-07-16T10:40:08.378Z,32.55
2018-07-16T10:41:08.364Z,33.20
2018-07-16T10:42:08.372Z,33.76
2018-07-16T10:43:08.380Z,34.18
2018-07-16T10:44:08.408Z,35.15
2018-07-16T10:45:08.416Z,35.19
2018-07-16T10:46:08.416Z,34.60
2018-07-16T10:47:08.458Z,33.92
2018-07-16T10:48:08.448Z,33.76
2018-07-16T10:49:08.454Z,33.76
2018-07-16T10:50:08.474Z,33.96
2018-07-16T10:51:08.507Z,33.73
2018-07-16T10:52:08.496Z,33.43
2018-07-16T10:53:08.507Z,32.89
2018-07-16T10:54:08.519Z,32.68
2018-07-16T10:55:08.570Z,33.05
2018-07-16T10:56:08.541Z,33.62
2018-07-16T10:57:08.570Z,33.65
2018-07-16T10:58:08.570Z,33.62
2018-07-16T10:59:08.580Z,33.95
2018-07-16T11:00:08.597Z,34.86
2018-07-16T11:01:08.606Z,35.80
2018-07-16T11:02:08.628Z,36.31
2018-07-16T11:03:08.782Z,36.61
2018-07-16T11:04:08.646Z,36.67
2018-07-16T11:05:08.663Z,36.36
2018-07-16T11:06:08.671Z,35.64
2018-07-16T11:07:08.684Z,34.62
2018-07-16T11:08:08.703Z,34.36
2018-07-16T11:09:08.714Z,34.24
2018-07-16T11:10:08.724Z,34.03
2018-07-16T11:11:08.738Z,34.36
2018-07-16T11:12:08.750Z,34.67
2018-07-16T11:13:08.766Z,34.60
2018-07-16T11:14:08.773Z,34.29
2018-07-16T11:15:08.910Z,33.74
2018-07-16T11:16:08.812Z,33.47
2018-07-16T11:17:08.819Z,33.68
2018-07-16T11:18:08.827Z,33.84
2018-07-16T11:19:08.847Z,34.16
2018-07-16T11:20:08.858Z,34.48
2018-07-16T11:21:08.873Z,34.99
2018-07-16T11:22:08.887Z,35.64
2018-07-16T11:23:08.919Z,36.12
2018-07-16T11:24:08.910Z,36.46
2018-07-16T11:25:08.928Z,36.65
2018-07-16T11:26:08.935Z,36.74
2018-07-16T11:27:08.952Z,37.14
2018-07-16T11:28:08.965Z,37.32
2018-07-16T11:29:08.988Z,37.28
2018-07-16T11:30:08.991Z,36.43
2018-07-16T11:31:09.009Z,35.30
2018-07-16T11:32:09.023Z,34.40
2018-07-16T11:33:09.038Z,33.95
2018-07-16T11:34:09.052Z,34.18
2018-07-16T11:35:09.077Z,33.57
2018-07-16T11:36:09.108Z,33.14
2018-07-16T11:37:09.090Z,32.90
2018-07-16T11:38:09.103Z,33.02
2018-07-16T11:39:09.118Z,32.95
2018-07-16T11:40:09.132Z,32.92
2018-07-16T11:41:09.142Z,32.80
2018-07-16T11:42:09.157Z,32.93
2018-07-16T11:43:09.195Z,32.89
2018-07-16T11:44:09.183Z,32.45
2018-07-16T11:45:09.200Z,31.89
2018-07-16T11:46:09.275Z,31.71
2018-07-16T11:47:09.256Z,31.70
2018-07-16T11:48:09.274Z,31.89
2018-07-16T11:49:09.260Z,31.81
2018-07-16T11:50:09.268Z,31.90
2018-07-16T11:51:09.307Z,31.62
2018-07-16T11:52:09.348Z,31.14
2018-07-16T11:53:09.328Z,31.51
2018-07-16T11:54:09.319Z,31.12
2018-07-16T11:55:09.358Z,30.92
2018-07-16T11:56:09.387Z,31.33
2018-07-16T11:57:09.354Z,31.84
2018-07-16T11:58:09.373Z,32.19
2018-07-16T11:59:09.397Z,32.53
2018-07-16T12:00:09.408Z,32.67
2018-07-16T12:01:09.415Z,33.39
2018-07-16T12:02:09.506Z,33.62
2018-07-16T12:03:09.445Z,34.54
2018-07-16T12:04:09.513Z,35.46
2018-07-16T12:05:10.160Z,36.04
2018-07-16T12:06:09.468Z,36.42
2018-07-16T12:07:09.496Z,36.81
2018-07-16T12:08:09.497Z,37.07
2018-07-16T12:09:09.509Z,37.30
2018-07-16T12:10:09.553Z,37.40
2018-07-16T12:11:09.536Z,36.81
2018-07-16T12:12:09.573Z,36.00
2018-07-16T12:13:09.614Z,35.92
2018-07-16T12:14:09.571Z,35.80
2018-07-16T12:15:09.612Z,35.19
2018-07-16T12:16:09.602Z,34.86
2018-07-16T12:17:09.620Z,34.14
2018-07-16T12:18:09.625Z,33.55
2018-07-16T12:19:09.640Z,33.15
2018-07-16T12:20:09.654Z,32.90
2018-07-16T12:21:09.667Z,32.77
2018-07-16T12:22:09.679Z,32.67
2018-07-16T12:23:09.693Z,32.73
2018-07-16T12:24:09.704Z,32.77
2018-07-16T12:25:09.721Z,32.90
2018-07-16T12:26:09.731Z,32.97
2018-07-16T12:27:09.745Z,33.23
2018-07-16T12:28:09.755Z,33.45
2018-07-16T12:29:09.802Z,33.65
2018-07-16T12:30:09.784Z,33.42
2018-07-16T12:31:09.792Z,33.58
2018-07-16T12:32:09.808Z,33.81
2018-07-16T12:33:09.822Z,33.92
2018-07-16T12:34:09.835Z,34.32
2018-07-16T12:35:09.857Z,34.75
2018-07-16T12:36:09.862Z,34.81
2018-07-16T12:37:09.872Z,35.04
2018-07-16T12:38:09.885Z,34.96
2018-07-16T12:39:09.904Z,35.31
2018-07-16T12:40:09.914Z,35.51
2018-07-16T12:41:09.930Z,35.55
2018-07-16T12:42:09.942Z,35.34
2018-07-16T12:43:09.959Z,35.14
2018-07-16T12:44:09.966Z,34.78
2018-07-16T12:45:09.977Z,34.77
2018-07-16T12:46:10.005Z,34.71
2018-07-16T12:47:10.006Z,34.58
2018-07-16T12:48:10.108Z,34.60
2018-07-16T12:49:10.041Z,34.78
2018-07-16T12:50:10.045Z,34.86
2018-07-16T12:51:10.086Z,33.95
2018-07-16T12:52:10.090Z,33.57